sensor_id;sensor_type;location;lat;lon;timestamp;P1;durP1;ratioP1;P2;durP2;ratioP2
60336;SDS011;46978;50.288;28.624;2024-03-02T00:00:03;40.81;;;20.57;;
60336;SDS011;46978;50.288;28.624;2024-03-02T00:01:07;38.62;;;21.30;;
60336;SDS011;46978;50.288;28.624;2024-03-02T00:02:11;41.76;;;22.20;;
60336;SDS011;46978;50.288;28.624;2024-03-02T00:03:13;38.61;;;21.76;;
60336;SDS011;46978;50.288;28.624;2024-03-02T00:04:14;39.81;;;22.51;;
60336;SDS011;46978;50.288;28.624;2024-03-02T00:05:17;36.91;;;22.17;;
60336;SDS011;46978;50.288;28.624;2024-03-02T00:06:20;39.60;;;22.85;;
60336;SDS011;46978;50.288;28.624;2024-03-02T00:07:22;38.31;;;22.40;;
60336;SDS011;46978;50.288;28.624;2024-03-02T00:08:24;39.17;;;22.73;;
60336;SDS011;46978;50.288;28.624;2024-03-02T00:09:26;44.27;;;23.02;;
60336;SDS011;46978;50.288;28.624;2024-03-02T00:10:36;41.26;;;22.69;;
60336;SDS011;46978;50.288;28.624;2024-03-02T00:11:38;38.67;;;21.47;;
60336;SDS011;46978;50.288;28.624;2024-03-02T00:12:40;40.38;;;22.93;;
60336;SDS011;46978;50.288;28.624;2024-03-02T00:13:42;41.41;;;22.51;;
60336;SDS011;46978;50.288;28.624;2024-03-02T00:14:44;41.72;;;21.98;;
60336;SDS011;46978;50.288;28.624;2024-03-02T00:15:46;39.68;;;23.24;;
60336;SDS011;46978;50.288;28.624;2024-03-02T00:16:49;41.53;;;21.84;;
60336;SDS011;46978;50.288;28.624;2024-03-02T00:17:55;36.17;;;21.53;;
60336;SDS011;46978;50.288;28.624;2024-03-02T00:19:00;42.44;;;22.78;;
60336;SDS011;46978;50.288;28.624;2024-03-02T00:20:04;37.72;;;21.36;;
60336;SDS011;46978;50.288;28.624;2024-03-02T00:21:10;36.78;;;21.67;;
60336;SDS011;46978;50.288;28.624;2024-03-02T00:22:12;40.96;;;21.27;;
60336;SDS011;46978;50.288;28.624;2024-03-02T00:23:14;36.02;;;19.14;;
60336;SDS011;46978;50.288;28.624;2024-03-02T00:24:18;33.44;;;21.12;;
60336;SDS011;46978;50.288;28.624;2024-03-02T00:25:24;34.62;;;20.89;;
60336;SDS011;46978;50.288;28.624;2024-03-02T00:26:26;34.13;;;21.47;;
60336;SDS011;46978;50.288;28.624;2024-03-02T00:27:27;39.74;;;20.14;;
60336;SDS011;46978;50.288;28.624;2024-03-02T00:28:30;38.29;;;20.67;;
60336;SDS011;46978;50.288;28.624;2024-03-02T00:29:36;36.43;;;20.91;;
60336;SDS011;46978;50.288;28.624;2024-03-02T00:31:49;37.56;;;19.87;;
60336;SDS011;46978;50.288;28.624;2024-03-02T00:32:50;40.31;;;19.60;;
60336;SDS011;46978;50.288;28.624;2024-03-02T00:33:52;35.95;;;20.25;;
60336;SDS011;46978;50.288;28.624;2024-03-02T00:34:54;39.46;;;20.44;;
60336;SDS011;46978;50.288;28.624;2024-03-02T00:35:56;39.18;;;21.29;;
60336;SDS011;46978;50.288;28.624;2024-03-02T00:36:58;34.40;;;20.10;;
60336;SDS011;46978;50.288;28.624;2024-03-02T00:38:05;36.94;;;20.85;;
60336;SDS011;46978;50.288;28.624;2024-03-02T00:39:07;38.58;;;19.89;;
60336;SDS011;46978;50.288;28.624;2024-03-02T00:40:10;34.67;;;19.50;;
60336;SDS011;46978;50.288;28.624;2024-03-02T00:41:46;41.25;;;20.03;;
60336;SDS011;46978;50.288;28.624;2024-03-02T00:42:26;35.81;;;20.81;;
60336;SDS011;46978;50.288;28.624;2024-03-02T00:44:41;35.19;;;20.01;;
60336;SDS011;46978;50.288;28.624;2024-03-02T00:45:43;34.91;;;18.31;;
60336;SDS011;46978;50.288;28.624;2024-03-02T00:46:45;36.75;;;19.91;;
60336;SDS011;46978;50.288;28.624;2024-03-02T00:47:46;34.03;;;19.73;;
60336;SDS011;46978;50.288;28.624;2024-03-02T00:48:52;32.71;;;17.59;;
60336;SDS011;46978;50.288;28.624;2024-03-02T00:49:55;35.68;;;19.89;;
60336;SDS011;46978;50.288;28.624;2024-03-02T00:50:57;37.74;;;18.79;;
60336;SDS011;46978;50.288;28.624;2024-03-02T00:51:58;36.08;;;19.58;;
60336;SDS011;46978;50.288;28.624;2024-03-02T00:53:01;36.73;;;19.51;;
60336;SDS011;46978;50.288;28.624;2024-03-02T00:54:04;36.85;;;19.44;;
60336;SDS011;46978;50.288;28.624;2024-03-02T00:55:07;31.04;;;18.61;;
60336;SDS011;46978;50.288;28.624;2024-03-02T00:56:10;34.90;;;18.73;;
60336;SDS011;46978;50.288;28.624;2024-03-02T00:57:12;35.79;;;18.82;;
60336;SDS011;46978;50.288;28.624;2024-03-02T00:58:15;34.20;;;19.65;;
60336;SDS011;46978;50.288;28.624;2024-03-02T00:59:17;31.01;;;15.67;;
60336;SDS011;46978;50.288;28.624;2024-03-02T01:00:19;36.65;;;19.81;;
60336;SDS011;46978;50.288;28.624;2024-03-02T01:01:21;39.96;;;19.90;;
60336;SDS011;46978;50.288;28.624;2024-03-02T01:02:23;36.27;;;19.95;;
60336;SDS011;46978;50.288;28.624;2024-03-02T01:03:25;33.89;;;19.16;;
60336;SDS011;46978;50.288;28.624;2024-03-02T01:04:26;33.74;;;19.47;;
60336;SDS011;46978;50.288;28.624;2024-03-02T01:05:28;38.94;;;19.83;;
60336;SDS011;46978;50.288;28.624;2024-03-02T01:06:30;34.11;;;18.41;;
60336;SDS011;46978;50.288;28.624;2024-03-02T01:07:32;33.14;;;18.96;;
60336;SDS011;46978;50.288;28.624;2024-03-02T01:08:36;37.69;;;19.78;;
60336;SDS011;46978;50.288;28.624;2024-03-02T01:09:38;32.03;;;19.30;;
60336;SDS011;46978;50.288;28.624;2024-03-02T01:10:40;33.55;;;19.71;;
60336;SDS011;46978;50.288;28.624;2024-03-02T01:11:41;32.55;;;18.38;;
60336;SDS011;46978;50.288;28.624;2024-03-02T01:12:43;32.94;;;19.55;;
60336;SDS011;46978;50.288;28.624;2024-03-02T01:13:45;35.71;;;18.75;;
60336;SDS011;46978;50.288;28.624;2024-03-02T01:14:46;35.57;;;20.21;;
60336;SDS011;46978;50.288;28.624;2024-03-02T01:15:48;33.21;;;20.23;;
60336;SDS011;46978;50.288;28.624;2024-03-02T01:16:50;34.39;;;18.64;;
60336;SDS011;46978;50.288;28.624;2024-03-02T01:17:51;35.69;;;19.49;;
60336;SDS011;46978;50.288;28.624;2024-03-02T01:18:53;38.20;;;21.02;;
60336;SDS011;46978;50.288;28.624;2024-03-02T01:19:55;36.39;;;19.18;;
60336;SDS011;46978;50.288;28.624;2024-03-02T01:20:56;32.96;;;18.93;;
60336;SDS011;46978;50.288;28.624;2024-03-02T01:21:58;33.14;;;18.38;;
60336;SDS011;46978;50.288;28.624;2024-03-02T01:23:00;37.19;;;19.44;;
60336;SDS011;46978;50.288;28.624;2024-03-02T01:24:01;31.64;;;17.29;;
60336;SDS011;46978;50.288;28.624;2024-03-02T01:25:03;35.56;;;20.46;;
60336;SDS011;46978;50.288;28.624;2024-03-02T01:26:06;35.59;;;20.01;;
60336;SDS011;46978;50.288;28.624;2024-03-02T01:27:07;35.22;;;19.60;;
60336;SDS011;46978;50.288;28.624;2024-03-02T01:28:09;35.47;;;18.52;;
60336;SDS011;46978;50.288;28.624;2024-03-02T01:29:10;31.02;;;17.33;;
60336;SDS011;46978;50.288;28.624;2024-03-02T01:30:12;35.23;;;18.80;;
60336;SDS011;46978;50.288;28.624;2024-03-02T01:31:14;34.21;;;18.32;;
60336;SDS011;46978;50.288;28.624;2024-03-02T01:32:16;39.39;;;19.78;;
60336;SDS011;46978;50.288;28.624;2024-03-02T01:33:17;37.45;;;19.17;;
60336;SDS011;46978;50.288;28.624;2024-03-02T01:34:20;38.63;;;20.22;;
60336;SDS011;46978;50.288;28.624;2024-03-02T01:35:21;32.89;;;18.79;;
60336;SDS011;46978;50.288;28.624;2024-03-02T01:36:23;34.44;;;18.81;;
60336;SDS011;46978;50.288;28.624;2024-03-02T01:37:25;34.01;;;18.74;;
60336;SDS011;46978;50.288;28.624;2024-03-02T01:38:26;32.70;;;17.73;;
60336;SDS011;46978;50.288;28.624;2024-03-02T01:39:28;38.49;;;19.20;;
60336;SDS011;46978;50.288;28.624;2024-03-02T01:40:29;32.47;;;19.49;;
60336;SDS011;46978;50.288;28.624;2024-03-02T01:41:31;35.38;;;19.28;;
60336;SDS011;46978;50.288;28.624;2024-03-02T01:42:32;33.04;;;19.03;;
60336;SDS011;46978;50.288;28.624;2024-03-02T01:43:34;29.61;;;17.51;;
60336;SDS011;46978;50.288;28.624;2024-03-02T01:44:36;33.15;;;18.78;;
60336;SDS011;46978;50.288;28.624;2024-03-02T01:45:38;31.21;;;18.04;;
60336;SDS011;46978;50.288;28.624;2024-03-02T01:46:40;31.20;;;16.60;;
60336;SDS011;46978;50.288;28.624;2024-03-02T01:47:41;31.41;;;18.44;;
60336;SDS011;46978;50.288;28.624;2024-03-02T01:48:43;32.05;;;17.65;;
60336;SDS011;46978;50.288;28.624;2024-03-02T01:49:44;32.89;;;18.19;;
60336;SDS011;46978;50.288;28.624;2024-03-02T01:50:46;31.08;;;18.62;;
60336;SDS011;46978;50.288;28.624;2024-03-02T01:51:47;32.39;;;17.81;;
60336;SDS011;46978;50.288;28.624;2024-03-02T01:52:49;32.26;;;17.75;;
60336;SDS011;46978;50.288;28.624;2024-03-02T01:53:51;35.37;;;18.99;;
60336;SDS011;46978;50.288;28.624;2024-03-02T01:54:53;32.54;;;17.04;;
60336;SDS011;46978;50.288;28.624;2024-03-02T01:55:54;31.83;;;17.68;;
60336;SDS011;46978;50.288;28.624;2024-03-02T01:56:56;32.80;;;18.71;;
60336;SDS011;46978;50.288;28.624;2024-03-02T01:57:58;36.11;;;18.54;;
60336;SDS011;46978;50.288;28.624;2024-03-02T01:58:59;32.30;;;18.99;;
60336;SDS011;46978;50.288;28.624;2024-03-02T02:00:01;30.26;;;17.60;;
60336;SDS011;46978;50.288;28.624;2024-03-02T02:01:03;32.92;;;18.38;;
60336;SDS011;46978;50.288;28.624;2024-03-02T02:02:05;33.62;;;18.09;;
60336;SDS011;46978;50.288;28.624;2024-03-02T02:03:06;32.26;;;18.41;;
60336;SDS011;46978;50.288;28.624;2024-03-02T02:04:08;32.96;;;18.56;;
60336;SDS011;46978;50.288;28.624;2024-03-02T02:05:10;33.48;;;19.04;;
60336;SDS011;46978;50.288;28.624;2024-03-02T02:06:12;32.39;;;18.04;;
60336;SDS011;46978;50.288;28.624;2024-03-02T02:07:14;31.10;;;18.23;;
60336;SDS011;46978;50.288;28.624;2024-03-02T02:08:15;30.65;;;17.99;;
60336;SDS011;46978;50.288;28.624;2024-03-02T02:09:18;35.90;;;19.03;;
60336;SDS011;46978;50.288;28.624;2024-03-02T02:10:20;32.48;;;20.11;;
60336;SDS011;46978;50.288;28.624;2024-03-02T02:11:21;34.99;;;18.16;;
60336;SDS011;46978;50.288;28.624;2024-03-02T02:12:23;33.04;;;18.87;;
60336;SDS011;46978;50.288;28.624;2024-03-02T02:13:25;31.61;;;18.74;;
60336;SDS011;46978;50.288;28.624;2024-03-02T02:14:26;32.04;;;18.09;;
60336;SDS011;46978;50.288;28.624;2024-03-02T02:15:29;34.44;;;18.05;;
60336;SDS011;46978;50.288;28.624;2024-03-02T02:16:31;33.81;;;18.76;;
60336;SDS011;46978;50.288;28.624;2024-03-02T02:17:32;34.14;;;18.17;;
60336;SDS011;46978;50.288;28.624;2024-03-02T02:18:34;31.36;;;17.99;;
60336;SDS011;46978;50.288;28.624;2024-03-02T02:19:36;33.89;;;18.02;;
60336;SDS011;46978;50.288;28.624;2024-03-02T02:20:38;31.51;;;17.98;;
60336;SDS011;46978;50.288;28.624;2024-03-02T02:21:44;36.48;;;19.22;;
60336;SDS011;46978;50.288;28.624;2024-03-02T02:22:59;29.52;;;18.48;;
60336;SDS011;46978;50.288;28.624;2024-03-02T02:24:03;31.03;;;17.96;;
60336;SDS011;46978;50.288;28.624;2024-03-02T02:25:05;33.51;;;18.85;;
60336;SDS011;46978;50.288;28.624;2024-03-02T02:26:08;33.12;;;17.73;;
60336;SDS011;46978;50.288;28.624;2024-03-02T02:27:09;36.51;;;18.73;;
60336;SDS011;46978;50.288;28.624;2024-03-02T02:28:11;34.05;;;18.84;;
60336;SDS011;46978;50.288;28.624;2024-03-02T02:29:13;31.76;;;18.51;;
60336;SDS011;46978;50.288;28.624;2024-03-02T02:30:25;39.82;;;20.13;;
60336;SDS011;46978;50.288;28.624;2024-03-02T02:31:22;33.94;;;18.51;;
60336;SDS011;46978;50.288;28.624;2024-03-02T02:32:24;35.76;;;19.29;;
60336;SDS011;46978;50.288;28.624;2024-03-02T02:33:26;31.81;;;18.47;;
60336;SDS011;46978;50.288;28.624;2024-03-02T02:34:27;31.94;;;17.64;;
60336;SDS011;46978;50.288;28.624;2024-03-02T02:35:29;31.78;;;18.14;;
60336;SDS011;46978;50.288;28.624;2024-03-02T02:36:35;29.76;;;17.97;;
60336;SDS011;46978;50.288;28.624;2024-03-02T02:37:35;31.31;;;19.38;;
60336;SDS011;46978;50.288;28.624;2024-03-02T02:38:38;34.61;;;18.25;;
60336;SDS011;46978;50.288;28.624;2024-03-02T02:39:41;34.06;;;18.27;;
60336;SDS011;46978;50.288;28.624;2024-03-02T02:40:43;28.82;;;17.61;;
60336;SDS011;46978;50.288;28.624;2024-03-02T02:41:45;30.91;;;17.94;;
60336;SDS011;46978;50.288;28.624;2024-03-02T02:42:46;32.61;;;18.27;;
60336;SDS011;46978;50.288;28.624;2024-03-02T02:43:49;32.16;;;17.51;;
60336;SDS011;46978;50.288;28.624;2024-03-02T02:44:50;33.71;;;18.03;;
60336;SDS011;46978;50.288;28.624;2024-03-02T02:45:52;29.72;;;17.58;;
60336;SDS011;46978;50.288;28.624;2024-03-02T02:46:53;38.82;;;20.44;;
60336;SDS011;46978;50.288;28.624;2024-03-02T02:47:55;39.08;;;22.57;;
60336;SDS011;46978;50.288;28.624;2024-03-02T02:48:56;38.31;;;20.94;;
60336;SDS011;46978;50.288;28.624;2024-03-02T02:49:58;36.59;;;22.69;;
60336;SDS011;46978;50.288;28.624;2024-03-02T02:51:00;36.14;;;21.91;;
60336;SDS011;46978;50.288;28.624;2024-03-02T02:52:01;41.44;;;22.16;;
60336;SDS011;46978;50.288;28.624;2024-03-02T02:53:03;37.29;;;20.61;;
60336;SDS011;46978;50.288;28.624;2024-03-02T02:54:04;37.98;;;20.17;;
60336;SDS011;46978;50.288;28.624;2024-03-02T02:55:07;36.26;;;21.10;;
60336;SDS011;46978;50.288;28.624;2024-03-02T02:56:11;32.88;;;20.60;;
60336;SDS011;46978;50.288;28.624;2024-03-02T02:57:13;38.46;;;19.58;;
60336;SDS011;46978;50.288;28.624;2024-03-02T02:58:14;34.61;;;19.49;;
60336;SDS011;46978;50.288;28.624;2024-03-02T02:59:16;33.89;;;19.36;;
60336;SDS011;46978;50.288;28.624;2024-03-02T03:00:18;35.16;;;19.66;;
60336;SDS011;46978;50.288;28.624;2024-03-02T03:01:20;35.07;;;20.01;;
60336;SDS011;46978;50.288;28.624;2024-03-02T03:02:21;34.11;;;18.58;;
60336;SDS011;46978;50.288;28.624;2024-03-02T03:03:23;35.86;;;20.93;;
60336;SDS011;46978;50.288;28.624;2024-03-02T03:04:25;36.74;;;20.52;;
60336;SDS011;46978;50.288;28.624;2024-03-02T03:05:26;33.71;;;18.99;;
60336;SDS011;46978;50.288;28.624;2024-03-02T03:06:28;34.54;;;18.74;;
60336;SDS011;46978;50.288;28.624;2024-03-02T03:07:29;38.94;;;20.62;;
60336;SDS011;46978;50.288;28.624;2024-03-02T03:08:31;33.64;;;19.90;;
60336;SDS011;46978;50.288;28.624;2024-03-02T03:09:33;35.15;;;19.57;;
60336;SDS011;46978;50.288;28.624;2024-03-02T03:10:34;34.01;;;19.78;;
60336;SDS011;46978;50.288;28.624;2024-03-02T03:11:36;35.79;;;19.97;;
60336;SDS011;46978;50.288;28.624;2024-03-02T03:12:38;34.75;;;19.76;;
60336;SDS011;46978;50.288;28.624;2024-03-02T03:13:39;36.19;;;20.19;;
60336;SDS011;46978;50.288;28.624;2024-03-02T03:14:41;37.11;;;20.79;;
60336;SDS011;46978;50.288;28.624;2024-03-02T03:15:42;37.14;;;20.34;;
60336;SDS011;46978;50.288;28.624;2024-03-02T03:16:45;41.99;;;22.16;;
60336;SDS011;46978;50.288;28.624;2024-03-02T03:17:47;35.32;;;20.77;;
60336;SDS011;46978;50.288;28.624;2024-03-02T03:18:49;39.31;;;21.08;;
60336;SDS011;46978;50.288;28.624;2024-03-02T03:19:50;39.37;;;21.43;;
60336;SDS011;46978;50.288;28.624;2024-03-02T03:20:52;37.20;;;21.00;;
60336;SDS011;46978;50.288;28.624;2024-03-02T03:21:54;38.24;;;20.97;;
60336;SDS011;46978;50.288;28.624;2024-03-02T03:22:55;38.74;;;22.64;;
60336;SDS011;46978;50.288;28.624;2024-03-02T03:24:00;39.15;;;21.25;;
60336;SDS011;46978;50.288;28.624;2024-03-02T03:25:02;37.94;;;21.98;;
60336;SDS011;46978;50.288;28.624;2024-03-02T03:26:04;40.46;;;23.03;;
60336;SDS011;46978;50.288;28.624;2024-03-02T03:27:05;44.62;;;23.41;;
60336;SDS011;46978;50.288;28.624;2024-03-02T03:28:08;38.68;;;21.95;;
60336;SDS011;46978;50.288;28.624;2024-03-02T03:29:09;35.34;;;21.64;;
60336;SDS011;46978;50.288;28.624;2024-03-02T03:30:11;43.35;;;22.18;;
60336;SDS011;46978;50.288;28.624;2024-03-02T03:31:13;34.37;;;20.19;;
60336;SDS011;46978;50.288;28.624;2024-03-02T03:32:15;36.23;;;22.06;;
60336;SDS011;46978;50.288;28.624;2024-03-02T03:33:16;37.13;;;20.76;;
60336;SDS011;46978;50.288;28.624;2024-03-02T03:34:18;36.30;;;21.68;;
60336;SDS011;46978;50.288;28.624;2024-03-02T03:35:19;40.82;;;22.36;;
60336;SDS011;46978;50.288;28.624;2024-03-02T03:36:21;38.57;;;21.55;;
60336;SDS011;46978;50.288;28.624;2024-03-02T03:37:23;37.11;;;21.99;;
60336;SDS011;46978;50.288;28.624;2024-03-02T03:38:24;39.94;;;21.81;;
60336;SDS011;46978;50.288;28.624;2024-03-02T03:39:26;39.34;;;22.69;;
60336;SDS011;46978;50.288;28.624;2024-03-02T03:40:27;42.04;;;22.11;;
60336;SDS011;46978;50.288;28.624;2024-03-02T03:41:29;37.89;;;21.45;;
60336;SDS011;46978;50.288;28.624;2024-03-02T03:42:30;36.73;;;20.56;;
60336;SDS011;46978;50.288;28.624;2024-03-02T03:43:32;39.44;;;22.46;;
60336;SDS011;46978;50.288;28.624;2024-03-02T03:44:33;35.94;;;20.36;;
60336;SDS011;46978;50.288;28.624;2024-03-02T03:45:35;38.67;;;21.54;;
60336;SDS011;46978;50.288;28.624;2024-03-02T03:46:37;38.13;;;20.88;;
60336;SDS011;46978;50.288;28.624;2024-03-02T03:47:38;38.84;;;21.81;;
60336;SDS011;46978;50.288;28.624;2024-03-02T03:48:40;38.31;;;21.76;;
60336;SDS011;46978;50.288;28.624;2024-03-02T03:49:42;38.43;;;22.39;;
60336;SDS011;46978;50.288;28.624;2024-03-02T03:50:43;43.19;;;21.72;;
60336;SDS011;46978;50.288;28.624;2024-03-02T03:51:45;35.69;;;21.38;;
60336;SDS011;46978;50.288;28.624;2024-03-02T03:52:46;39.61;;;22.24;;
60336;SDS011;46978;50.288;28.624;2024-03-02T03:55:09;38.68;;;22.46;;
60336;SDS011;46978;50.288;28.624;2024-03-02T03:56:11;38.73;;;22.40;;
60336;SDS011;46978;50.288;28.624;2024-03-02T03:57:13;37.86;;;21.61;;
60336;SDS011;46978;50.288;28.624;2024-03-02T03:58:14;37.66;;;21.76;;
60336;SDS011;46978;50.288;28.624;2024-03-02T03:59:16;36.21;;;21.87;;
60336;SDS011;46978;50.288;28.624;2024-03-02T04:00:18;41.19;;;22.03;;
60336;SDS011;46978;50.288;28.624;2024-03-02T04:01:20;40.87;;;22.49;;
60336;SDS011;46978;50.288;28.624;2024-03-02T04:02:21;39.10;;;21.83;;
60336;SDS011;46978;50.288;28.624;2024-03-02T04:03:23;40.49;;;22.64;;
60336;SDS011;46978;50.288;28.624;2024-03-02T04:04:25;39.04;;;21.12;;
60336;SDS011;46978;50.288;28.624;2024-03-02T04:05:26;39.14;;;21.94;;
60336;SDS011;46978;50.288;28.624;2024-03-02T04:06:28;44.86;;;24.28;;
60336;SDS011;46978;50.288;28.624;2024-03-02T04:07:29;46.00;;;25.59;;
60336;SDS011;46978;50.288;28.624;2024-03-02T04:08:31;41.89;;;23.34;;
60336;SDS011;46978;50.288;28.624;2024-03-02T04:09:33;43.34;;;22.89;;
60336;SDS011;46978;50.288;28.624;2024-03-02T04:10:35;42.64;;;22.95;;
60336;SDS011;46978;50.288;28.624;2024-03-02T04:11:36;43.85;;;22.98;;
60336;SDS011;46978;50.288;28.624;2024-03-02T04:12:38;38.02;;;20.97;;
60336;SDS011;46978;50.288;28.624;2024-03-02T04:13:39;40.34;;;23.21;;
60336;SDS011;46978;50.288;28.624;2024-03-02T04:14:41;39.66;;;22.15;;
60336;SDS011;46978;50.288;28.624;2024-03-02T04:15:42;38.71;;;22.37;;
60336;SDS011;46978;50.288;28.624;2024-03-02T04:16:44;39.99;;;22.78;;
60336;SDS011;46978;50.288;28.624;2024-03-02T04:17:46;41.62;;;22.96;;
60336;SDS011;46978;50.288;28.624;2024-03-02T04:18:47;39.36;;;22.06;;
60336;SDS011;46978;50.288;28.624;2024-03-02T04:19:49;39.14;;;21.15;;
60336;SDS011;46978;50.288;28.624;2024-03-02T04:20:50;36.62;;;21.54;;
60336;SDS011;46978;50.288;28.624;2024-03-02T04:21:52;41.16;;;23.09;;
60336;SDS011;46978;50.288;28.624;2024-03-02T04:22:53;44.90;;;24.20;;
60336;SDS011;46978;50.288;28.624;2024-03-02T04:23:55;44.83;;;23.63;;
60336;SDS011;46978;50.288;28.624;2024-03-02T04:24:57;40.88;;;21.94;;
60336;SDS011;46978;50.288;28.624;2024-03-02T04:25:58;41.94;;;22.64;;
60336;SDS011;46978;50.288;28.624;2024-03-02T04:27:00;43.72;;;23.11;;
60336;SDS011;46978;50.288;28.624;2024-03-02T04:28:02;39.20;;;22.93;;
60336;SDS011;46978;50.288;28.624;2024-03-02T04:29:03;36.69;;;20.53;;
60336;SDS011;46978;50.288;28.624;2024-03-02T04:30:05;40.98;;;21.36;;
60336;SDS011;46978;50.288;28.624;2024-03-02T04:31:08;36.16;;;20.71;;
60336;SDS011;46978;50.288;28.624;2024-03-02T04:32:09;40.26;;;21.74;;
60336;SDS011;46978;50.288;28.624;2024-03-02T04:33:11;42.08;;;21.53;;
60336;SDS011;46978;50.288;28.624;2024-03-02T04:34:12;37.09;;;22.38;;
60336;SDS011;46978;50.288;28.624;2024-03-02T04:35:14;36.33;;;21.30;;
60336;SDS011;46978;50.288;28.624;2024-03-02T04:36:16;39.32;;;21.65;;
60336;SDS011;46978;50.288;28.624;2024-03-02T04:37:17;38.26;;;20.83;;
60336;SDS011;46978;50.288;28.624;2024-03-02T04:39:40;38.63;;;20.99;;
60336;SDS011;46978;50.288;28.624;2024-03-02T04:40:42;37.22;;;21.53;;
60336;SDS011;46978;50.288;28.624;2024-03-02T04:41:44;38.56;;;21.61;;
60336;SDS011;46978;50.288;28.624;2024-03-02T04:42:45;39.07;;;22.04;;
60336;SDS011;46978;50.288;28.624;2024-03-02T04:43:47;38.53;;;22.15;;
60336;SDS011;46978;50.288;28.624;2024-03-02T04:44:48;43.91;;;22.79;;
60336;SDS011;46978;50.288;28.624;2024-03-02T04:45:50;41.84;;;23.11;;
60336;SDS011;46978;50.288;28.624;2024-03-02T04:46:52;38.49;;;22.48;;
60336;SDS011;46978;50.288;28.624;2024-03-02T04:47:53;41.41;;;22.66;;
60336;SDS011;46978;50.288;28.624;2024-03-02T04:48:55;39.96;;;22.24;;
60336;SDS011;46978;50.288;28.624;2024-03-02T04:49:57;38.86;;;22.19;;
60336;SDS011;46978;50.288;28.624;2024-03-02T04:50:58;40.33;;;22.09;;
60336;SDS011;46978;50.288;28.624;2024-03-02T04:52:00;42.46;;;22.28;;
60336;SDS011;46978;50.288;28.624;2024-03-02T04:53:01;37.71;;;22.87;;
60336;SDS011;46978;50.288;28.624;2024-03-02T04:54:03;40.25;;;21.35;;
60336;SDS011;46978;50.288;28.624;2024-03-02T04:55:05;43.77;;;21.81;;
60336;SDS011;46978;50.288;28.624;2024-03-02T04:56:07;39.27;;;20.97;;
60336;SDS011;46978;50.288;28.624;2024-03-02T04:57:08;35.12;;;20.94;;
60336;SDS011;46978;50.288;28.624;2024-03-02T04:58:10;41.64;;;22.00;;
60336;SDS011;46978;50.288;28.624;2024-03-02T04:59:11;41.39;;;22.36;;
60336;SDS011;46978;50.288;28.624;2024-03-02T05:00:14;37.47;;;21.95;;
60336;SDS011;46978;50.288;28.624;2024-03-02T05:01:16;41.39;;;21.60;;
60336;SDS011;46978;50.288;28.624;2024-03-02T05:02:18;44.77;;;21.61;;
60336;SDS011;46978;50.288;28.624;2024-03-02T05:03:20;40.25;;;22.69;;
60336;SDS011;46978;50.288;28.624;2024-03-02T05:04:22;43.11;;;20.16;;
60336;SDS011;46978;50.288;28.624;2024-03-02T05:05:23;42.02;;;22.10;;
60336;SDS011;46978;50.288;28.624;2024-03-02T05:06:25;46.78;;;22.04;;
60336;SDS011;46978;50.288;28.624;2024-03-02T05:07:26;41.53;;;23.15;;
60336;SDS011;46978;50.288;28.624;2024-03-02T05:08:28;38.75;;;22.66;;
60336;SDS011;46978;50.288;28.624;2024-03-02T05:09:29;40.84;;;23.49;;
60336;SDS011;46978;50.288;28.624;2024-03-02T05:10:31;45.04;;;25.13;;
60336;SDS011;46978;50.288;28.624;2024-03-02T05:11:33;44.89;;;24.35;;
60336;SDS011;46978;50.288;28.624;2024-03-02T05:12:34;40.65;;;24.21;;
60336;SDS011;46978;50.288;28.624;2024-03-02T05:13:36;54.10;;;27.37;;
60336;SDS011;46978;50.288;28.624;2024-03-02T05:14:38;52.13;;;27.30;;
60336;SDS011;46978;50.288;28.624;2024-03-02T05:15:39;46.01;;;25.31;;
60336;SDS011;46978;50.288;28.624;2024-03-02T05:16:41;40.59;;;23.11;;
60336;SDS011;46978;50.288;28.624;2024-03-02T05:17:42;41.36;;;22.21;;
60336;SDS011;46978;50.288;28.624;2024-03-02T05:18:44;41.01;;;22.83;;
60336;SDS011;46978;50.288;28.624;2024-03-02T05:19:45;39.53;;;22.24;;
60336;SDS011;46978;50.288;28.624;2024-03-02T05:20:47;37.39;;;22.15;;
60336;SDS011;46978;50.288;28.624;2024-03-02T05:21:49;37.24;;;21.44;;
60336;SDS011;46978;50.288;28.624;2024-03-02T05:22:50;41.01;;;23.26;;
60336;SDS011;46978;50.288;28.624;2024-03-02T05:23:52;39.07;;;21.88;;
60336;SDS011;46978;50.288;28.624;2024-03-02T05:24:53;39.50;;;22.84;;
60336;SDS011;46978;50.288;28.624;2024-03-02T05:25:55;35.71;;;21.56;;
60336;SDS011;46978;50.288;28.624;2024-03-02T05:26:56;41.93;;;22.86;;
60336;SDS011;46978;50.288;28.624;2024-03-02T05:27:58;44.97;;;23.50;;
60336;SDS011;46978;50.288;28.624;2024-03-02T05:28:59;38.22;;;21.43;;
60336;SDS011;46978;50.288;28.624;2024-03-02T05:30:01;35.65;;;20.96;;
60336;SDS011;46978;50.288;28.624;2024-03-02T05:31:04;36.45;;;21.14;;
60336;SDS011;46978;50.288;28.624;2024-03-02T05:32:06;37.00;;;21.16;;
60336;SDS011;46978;50.288;28.624;2024-03-02T05:33:08;38.89;;;20.57;;
60336;SDS011;46978;50.288;28.624;2024-03-02T05:34:09;40.60;;;22.49;;
60336;SDS011;46978;50.288;28.624;2024-03-02T05:35:11;36.16;;;21.85;;
60336;SDS011;46978;50.288;28.624;2024-03-02T05:36:13;42.72;;;22.35;;
60336;SDS011;46978;50.288;28.624;2024-03-02T05:37:15;36.52;;;21.17;;
60336;SDS011;46978;50.288;28.624;2024-03-02T05:38:16;41.04;;;22.24;;
60336;SDS011;46978;50.288;28.624;2024-03-02T05:39:18;34.39;;;20.63;;
60336;SDS011;46978;50.288;28.624;2024-03-02T05:40:20;40.45;;;22.10;;
60336;SDS011;46978;50.288;28.624;2024-03-02T05:41:21;42.15;;;23.92;;
60336;SDS011;46978;50.288;28.624;2024-03-02T05:43:44;46.14;;;25.44;;
60336;SDS011;46978;50.288;28.624;2024-03-02T05:44:46;57.62;;;30.97;;
60336;SDS011;46978;50.288;28.624;2024-03-02T05:45:47;45.09;;;26.66;;
60336;SDS011;46978;50.288;28.624;2024-03-02T05:46:49;49.94;;;29.58;;
60336;SDS011;46978;50.288;28.624;2024-03-02T05:47:50;42.44;;;24.89;;
60336;SDS011;46978;50.288;28.624;2024-03-02T05:48:52;40.67;;;21.89;;
60336;SDS011;46978;50.288;28.624;2024-03-02T05:49:54;43.07;;;22.17;;
60336;SDS011;46978;50.288;28.624;2024-03-02T05:50:55;42.25;;;22.51;;
60336;SDS011;46978;50.288;28.624;2024-03-02T05:51:57;44.58;;;24.14;;
60336;SDS011;46978;50.288;28.624;2024-03-02T05:52:58;46.13;;;25.55;;
60336;SDS011;46978;50.288;28.624;2024-03-02T05:54:00;40.91;;;23.38;;
60336;SDS011;46978;50.288;28.624;2024-03-02T05:55:01;40.81;;;23.01;;
60336;SDS011;46978;50.288;28.624;2024-03-02T05:56:04;47.03;;;23.95;;
60336;SDS011;46978;50.288;28.624;2024-03-02T05:57:06;44.95;;;23.21;;
60336;SDS011;46978;50.288;28.624;2024-03-02T05:58:08;50.40;;;27.25;;
60336;SDS011;46978;50.288;28.624;2024-03-02T05:59:09;39.79;;;24.19;;
60336;SDS011;46978;50.288;28.624;2024-03-02T06:00:11;36.66;;;19.01;;
60336;SDS011;46978;50.288;28.624;2024-03-02T06:01:14;34.41;;;19.21;;
60336;SDS011;46978;50.288;28.624;2024-03-02T06:02:15;37.59;;;21.94;;
60336;SDS011;46978;50.288;28.624;2024-03-02T06:03:17;36.89;;;21.36;;